MMGL Airport Information

Runway Information
Runway 02 Length 5964 ft width 94 ft
Elevation 5016 ft Threshold 0 ft Heading 30
Runway 20 Length 5964 ft Width 94 ft
Elevation 5016 ft Threshold 0 ft Heading 210
Runway 10 Length 13123 ft width 197 ft
Elevation 5012 ft Threshold 0 ft Heading 114
Runway 28 Length 13123 ft Width 197 ft
Elevation 5011 ft Threshold 0 ft Heading 294
Airport Frequencies
Type APP Name GUADALAJAR Frequency 119.3 MHZ
Type ATIS Name ATIS Frequency 127.9 MHZ
Type GND Name GND Frequency 121.9 MHZ
Type TWR Name GUADALAJAR Frequency 118.1 MHZ
Airport Navaids
Type NDB Name Guadalajara Frequency 395 KHZ
Type VOR-DME Name Guadalajara Frequency 117300 KHZ
Airport Weather Information & NOTAM
ADDS - METARS form results

(2233 UTC 20 June 2018)
 
METAR text: MMGL 202148Z 00000KT 8SM SCT015 BKN020 OVC100 24/12 A3009 RMK 8/87/
Conditions at: MMGL (GUADALAJARA , MX) observed 2148 UTC 20 June 2018
Temperature: 24.0°C (75°F)
Dewpoint: 12.0°C (54°F) [RH = 47%]
Pressure (altimeter): 30.09 inches Hg (1019.0 mb)
Winds: calm
Visibility: 8 miles (13 km)
Ceiling: 2000 feet AGL
Clouds: scattered clouds at 1500 feet AGL
broken clouds at 2000 feet AGL
overcast cloud deck at 10000 feet AGL
Weather: no significant weather observed at this time